Time;durP1;ratioP1;P1;durP2;ratioP2;P2;SDS_P1;SDS_P2;PMS_P1;PMS_P2;Temp;Humidity;BMP_temperature;BMP_pressure;BME280_temperature;BME280_humidity;BME280_pressure;Samples;Min_cycle;Max_cycle;Signal;HPM_P1;HPM_P2
2023/09/16 00:00:17;;;;;;;2.97;1.40;;;22.10;66.80;;;;;;5039583;28;20394;-67
2023/09/16 00:02:43;;;;;;;2.03;1.35;;;22.10;66.70;;;;;;5039396;28;20076;-67
2023/09/16 00:05:08;;;;;;;1.95;1.45;;;22.10;66.50;;;;;;5043372;28;20104;-67
2023/09/16 00:07:34;;;;;;;3.05;1.63;;;22.10;66.50;;;;;;5038954;28;20064;-67
2023/09/16 00:09:59;;;;;;;1.70;1.52;;;22.10;66.70;;;;;;5039394;28;20083;-68
2023/09/16 00:12:26;;;;;;;1.58;1.38;;;22.10;66.40;;;;;;5039128;28;20049;-67
2023/09/16 00:14:52;;;;;;;2.05;1.40;;;22.10;66.80;;;;;;5038089;28;20026;-67
2023/09/16 00:17:18;;;;;;;1.65;1.40;;;22.00;67.00;;;;;;5038127;28;20041;-68
2023/09/16 00:19:44;;;;;;;1.50;1.40;;;22.00;66.80;;;;;;5039191;28;20025;-67
2023/09/16 00:22:10;;;;;;;2.35;1.40;;;22.00;67.10;;;;;;5037526;28;20022;-67
2023/09/16 00:24:39;;;;;;;1.52;1.20;;;21.90;67.60;;;;;;5039254;28;20018;-67
2023/09/16 00:27:06;;;;;;;1.63;1.30;;;22.00;68.70;;;;;;5038893;28;20536;-67
2023/09/16 00:29:32;;;;;;;1.63;1.40;;;21.90;67.90;;;;;;5038936;28;20029;-67
2023/09/16 00:31:58;;;;;;;1.60;1.27;;;21.90;68.40;;;;;;5038733;28;20021;-67
2023/09/16 00:34:23;;;;;;;2.08;1.58;;;21.90;67.70;;;;;;5038790;28;20394;-67
2023/09/16 00:36:49;;;;;;;1.42;1.33;;;21.90;68.10;;;;;;5038662;28;20063;-67
2023/09/16 00:39:15;;;;;;;1.85;1.27;;;21.90;67.10;;;;;;5026505;28;20029;-67
2023/09/16 00:41:41;;;;;;;2.25;1.40;;;21.90;67.30;;;;;;5037827;28;20034;-68
2023/09/16 00:44:06;;;;;;;3.35;1.58;;;21.90;67.20;;;;;;5038779;28;20029;-67
2023/09/16 00:46:32;;;;;;;1.88;1.42;;;;;;;;;;5038588;28;20617;-67
2023/09/16 00:48:59;;;;;;;1.92;1.52;;;;;;;;;;5039523;28;20037;-67
2023/09/16 00:51:25;;;;;;;2.17;1.60;;;;;;;;;;5041538;28;20057;-69
2023/09/16 00:53:51;;;;;;;1.60;1.10;;;;;;;;;;5038759;28;20029;-69
2023/09/16 00:56:18;;;;;;;1.80;1.20;;;;;;;;;;5039279;28;20053;-68
2023/09/16 00:58:45;;;;;;;1.58;1.38;;;;;;;;;;5038289;28;20219;-69
2023/09/16 01:01:12;;;;;;;3.08;1.20;;;;;;;;;;5038377;28;20025;-67
2023/09/16 01:03:41;;;;;;;1.20;1.00;;;;;;;;;;5042230;28;20024;-67
2023/09/16 01:06:07;;;;;;;1.45;0.90;;;;;;;;;;5039413;28;20044;-67
2023/09/16 01:08:37;;;;;;;2.58;1.10;;;;;;;;;;5038094;28;20029;-67
2023/09/16 01:11:05;;;;;;;1.67;1.10;;;;;;;;;;5036582;28;20021;-67
2023/09/16 01:13:31;;;;;;;1.42;0.98;;;;;;;;;;5037030;28;20474;-67
2023/09/16 01:16:08;;;;;;;2.20;1.10;;;;;;;;;;5038009;28;20028;-67
2023/09/16 01:18:41;;;;;;;1.80;1.10;;;;;;;;;;5036878;28;20490;-66
2023/09/16 01:21:08;;;;;;;2.70;1.15;;;;;;;;;;5038041;28;20507;-67
2023/09/16 01:23:34;;;;;;;1.20;0.90;;;;;;;;;;5037385;28;20064;-67
2023/09/16 01:26:00;;;;;;;2.72;1.10;;;;;;;;;;5037896;28;20025;-67
2023/09/16 01:28:26;;;;;;;1.20;0.98;;;;;;;;;;5039355;28;20028;-70
2023/09/16 01:30:55;;;;;;;1.95;1.00;;;;;;;;;;5046195;28;20033;-72
2023/09/16 01:33:40;;;;;;;1.55;1.20;;;;;;;;;;5040580;28;20036;-69
2023/09/16 01:36:10;;;;;;;1.73;1.20;;;;;;;;;;5040665;28;20116;-69
2023/09/16 01:38:37;;;;;;;1.92;1.10;;;;;;;;;;5033982;28;20021;-70
2023/09/16 01:41:03;;;;;;;1.30;1.00;;;;;;;;;;5038424;28;20037;-71
2023/09/16 01:43:31;;;;;;;1.65;1.10;;;;;;;;;;5042561;28;20017;-69
2023/09/16 01:45:57;;;;;;;2.30;1.33;;;;;;;;;;5042996;28;20036;-69
2023/09/16 01:48:23;;;;;;;1.65;1.20;;;;;;;;;;5042419;28;20017;-69
2023/09/16 01:50:49;;;;;;;2.88;1.20;;;;;;;;;;5046794;28;20048;-69
2023/09/16 01:53:16;;;;;;;2.08;1.23;;;;;;;;;;5042870;28;20026;-69
2023/09/16 01:55:42;;;;;;;1.80;1.20;;;;;;;;;;5043053;28;20120;-70
2023/09/16 01:58:08;;;;;;;1.65;1.10;;;;;;;;;;5042946;28;20040;-68
2023/09/16 02:00:35;;;;;;;2.90;1.13;;;;;;;;;;5040537;28;20033;-68
2023/09/16 02:03:01;;;;;;;1.85;1.27;;;;;;;;;;5040698;28;20044;-68
2023/09/16 02:05:27;;;;;;;1.67;1.08;;;;;;;;;;5046749;28;20026;-69
2023/09/16 02:07:53;;;;;;;1.17;0.93;;;;;;;;;;5040066;28;20021;-68
2023/09/16 02:10:19;;;;;;;1.52;1.40;;;;;;;;;;5040635;28;20089;-69
2023/09/16 02:12:45;;;;;;;2.20;1.10;;;;;;;;;;5040675;28;20056;-66
2023/09/16 02:15:12;;;;;;;1.70;1.10;;;;;;;;;;5040566;28;20113;-67
2023/09/16 02:17:41;;;;;;;3.38;0.80;;;;;;;;;;5041361;28;20417;-69
2023/09/16 02:20:12;;;;;;;2.53;1.15;;;;;;;;;;5041612;28;20026;-69
2023/09/16 02:22:39;;;;;;;3.97;1.00;;;;;;;;;;5042619;28;20029;-70
2023/09/16 02:25:05;;;;;;;1.60;1.20;;;;;;;;;;5043466;28;20068;-71
2023/09/16 02:27:32;;;;;;;1.70;1.30;;;;;;;;;;5044248;28;20048;-71
2023/09/16 02:29:58;;;;;;;1.50;0.90;;;;;;;;;;5044929;28;20053;-70
2023/09/16 02:32:24;;;;;;;1.77;1.13;;;;;;;;;;5045133;28;20026;-70
2023/09/16 02:34:50;;;;;;;3.10;1.00;;;;;;;;;;5044659;28;20034;-70
2023/09/16 02:37:16;;;;;;;1.70;1.05;;;;;;;;;;5043209;28;20116;-70
2023/09/16 02:39:42;;;;;;;1.40;0.90;;;;;;;;;;5045450;28;20069;-71
2023/09/16 02:42:08;;;;;;;2.35;1.00;;;;;;;;;;5048649;28;20075;-70
2023/09/16 02:44:34;;;;;;;2.20;1.13;;;;;;;;;;5047876;28;20021;-70
2023/09/16 02:47:00;;;;;;;2.72;1.30;;;;;;;;;;5049182;28;20068;-70
2023/09/16 02:49:29;;;;;;;1.30;1.02;;;;;;;;;;5048323;28;20043;-70
2023/09/16 02:51:55;;;;;;;2.65;1.20;;;;;;;;;;5048236;28;20021;-70
2023/09/16 02:54:21;;;;;;;1.48;1.10;;;;;;;;;;5048460;28;20034;-71
2023/09/16 02:56:47;;;;;;;2.60;1.60;;;;;;;;;;5048517;28;20054;-71
2023/09/16 02:59:13;;;;;;;1.52;1.10;;;;;;;;;;5048601;28;20044;-71
2023/09/16 03:01:39;;;;;;;1.73;1.30;;;;;;;;;;5047776;28;20022;-70
2023/09/16 03:04:05;;;;;;;1.45;1.20;;;;;;;;;;5053248;28;20048;-69
2023/09/16 03:06:31;;;;;;;1.60;1.20;;;;;;;;;;5046278;28;20037;-70
2023/09/16 03:08:57;;;;;;;1.90;1.40;;;;;;;;;;5047315;28;20026;-70
2023/09/16 03:11:23;;;;;;;1.90;1.60;;;;;;;;;;5043155;28;20029;-69
2023/09/16 03:13:49;;;;;;;1.95;1.40;;;;;;;;;;5041703;28;20026;-68
2023/09/16 03:16:18;;;;;;;2.80;1.50;;;;;;;;;;5044487;28;20093;-69
2023/09/16 03:18:45;;;;;;;2.47;1.40;;;;;;;;;;5044451;28;20030;-69
2023/09/16 03:21:11;;;;;;;2.55;1.90;;;;;;;;;;5044598;28;20026;-69
2023/09/16 03:23:37;;;;;;;2.42;1.50;;;;;;;;;;5041848;28;20025;-68
2023/09/16 03:26:03;;;;;;;1.90;1.50;;;;;;;;;;5042624;28;20048;-69
2023/09/16 03:28:29;;;;;;;2.85;1.75;;;;;;;;;;5041957;28;20021;-70
2023/09/16 03:30:55;;;;;;;2.67;1.65;;;;;;;;;;5046758;28;20025;-69
2023/09/16 03:33:21;;;;;;;2.15;1.50;;;;;;;;;;5045682;28;20025;-69
2023/09/16 03:35:47;;;;;;;1.60;1.40;;;;;;;;;;5048355;28;20049;-72
2023/09/16 03:38:16;;;;;;;3.10;1.60;;;;;;;;;;5047720;28;20101;-70
2023/09/16 03:40:42;;;;;;;2.10;1.40;;;;;;;;;;5048611;28;20025;-71
2023/09/16 03:43:08;;;;;;;1.80;1.45;;;;;;;;;;5048391;28;20025;-72
2023/09/16 03:45:34;;;;;;;1.77;1.52;;;;;;;;;;5047694;28;20063;-71
2023/09/16 03:48:00;;;;;;;2.30;1.40;;;;;;;;;;5047603;28;20021;-71
2023/09/16 03:50:26;;;;;;;1.55;1.38;;;;;;;;;;5051242;28;20569;-72
2023/09/16 03:52:53;;;;;;;3.67;1.20;;;;;;;;;;5048454;28;20033;-70
2023/09/16 03:55:19;;;;;;;2.20;1.60;;;;;;;;;;5048364;28;20029;-70
2023/09/16 03:57:45;;;;;;;3.42;1.42;;;;;;;;;;5047439;28;20045;-71
2023/09/16 04:00:11;;;;;;;2.72;1.40;;;;;;;;;;5042407;28;20438;-69
2023/09/16 04:02:40;;;;;;;1.83;1.30;;;;;;;;;;5045243;28;20065;-72
2023/09/16 04:05:07;;;;;;;2.35;1.50;;;;;;;;;;5050666;28;20485;-70
2023/09/16 04:07:34;;;;;;;2.28;1.20;;;;;;;;;;5046369;28;20021;-70
2023/09/16 04:10:00;;;;;;;1.60;1.35;;;;;;;;;;5047173;28;20036;-70
2023/09/16 04:12:27;;;;;;;1.65;1.20;;;;;;;;;;5042564;28;20022;-69
2023/09/16 04:14:53;;;;;;;2.40;1.25;;;;;;;;;;5042752;28;20375;-69
2023/09/16 04:17:20;;;;;;;1.85;1.30;;;;;;;;;;5042442;28;20025;-69
2023/09/16 04:19:46;;;;;;;3.03;1.40;;;;;;;;;;5044128;28;20036;-69
2023/09/16 04:22:12;;;;;;;1.90;1.50;;;;;;;;;;5043836;28;20018;-69
2023/09/16 04:24:38;;;;;;;2.10;1.30;;;;;;;;;;5043754;28;20085;-69
2023/09/16 04:27:04;;;;;;;2.63;1.40;;;;;;;;;;5043701;28;20080;-68
2023/09/16 04:29:31;;;;;;;1.75;1.20;;;;;;;;;;5043811;28;20033;-68
2023/09/16 04:31:57;;;;;;;1.90;1.50;;;;;;;;;;5043880;28;20091;-69
2023/09/16 04:34:23;;;;;;;2.22;1.83;;;;;;;;;;5044182;28;20064;-69
2023/09/16 04:36:49;;;;;;;2.70;1.50;;;;;;;;;;5043952;28;20025;-68
2023/09/16 04:39:16;;;;;;;2.17;1.50;;;;;;;;;;5034154;28;20030;-71
2023/09/16 04:41:42;;;;;;;2.08;1.40;;;;;;;;;;5045349;28;20029;-70
2023/09/16 04:44:08;;;;;;;1.75;1.30;;;;;;;;;;5046556;28;20505;-70
2023/09/16 04:46:34;;;;;;;1.92;1.40;;;;;;;;;;5046017;28;20021;-70
2023/09/16 04:49:00;;;;;;;2.92;1.50;;;;;;;;;;5044545;28;20032;-71
2023/09/16 04:51:26;;;;;;;1.63;1.10;;;;;;;;;;5045019;28;20531;-70
2023/09/16 04:53:54;;;;;;;2.00;1.30;;;;;;;;;;5046663;28;20437;-71
2023/09/16 04:56:20;;;;;;;2.58;1.30;;;;;;;;;;5046784;28;20587;-70
2023/09/16 04:58:49;;;;;;;3.25;1.23;;;;;;;;;;5047223;28;20029;-70
2023/09/16 05:01:15;;;;;;;3.15;1.40;;;;;;;;;;5043342;28;20405;-69
2023/09/16 05:03:41;;;;;;;3.25;1.30;;;;;;;;;;5046883;28;20025;-69
2023/09/16 05:06:07;;;;;;;2.22;1.20;;;;;;;;;;5045334;28;20037;-69
2023/09/16 05:08:33;;;;;;;2.47;1.20;;;;;;;;;;5043056;28;20021;-70
2023/09/16 05:10:59;;;;;;;2.25;1.40;;;;;;;;;;5043502;28;20025;-69
2023/09/16 05:13:25;;;;;;;1.40;1.20;;;;;;;;;;5044386;28;20029;-70
2023/09/16 05:15:51;;;;;;;2.00;1.45;;;;;;;;;;5042920;28;20029;-69
2023/09/16 05:18:17;;;;;;;2.08;1.30;;;;;;;;;;5042343;28;20048;-70
2023/09/16 05:20:43;;;;;;;1.45;1.05;;;;;;;;;;5043258;28;20021;-69
2023/09/16 05:23:09;;;;;;;1.38;1.08;;;;;;;;;;5042062;28;20037;-69
2023/09/16 05:25:35;;;;;;;1.85;1.30;;;;;;;;;;5041884;28;20025;-69
2023/09/16 05:28:01;;;;;;;1.67;1.27;;;;;;;;;;5043525;28;20029;-69
2023/09/16 05:30:27;;;;;;;2.65;1.77;;;;;;;;;;5041368;28;20052;-68
2023/09/16 05:32:53;;;;;;;2.70;1.80;;;;;;;;;;5042403;28;20108;-69
2023/09/16 05:35:19;;;;;;;2.45;1.88;;;;;;;;;;5042714;28;20052;-69
2023/09/16 05:37:45;;;;;;;1.60;1.40;;;;;;;;;;5042559;28;20025;-69
2023/09/16 05:40:11;;;;;;;3.78;1.63;;;;;;;;;;5045804;28;20902;-70
2023/09/16 05:42:37;;;;;;;3.50;1.63;;;;;;;;;;5045075;28;20045;-70
2023/09/16 05:45:04;;;;;;;1.85;1.30;;;;;;;;;;5045372;28;20041;-70
2023/09/16 05:47:30;;;;;;;3.33;1.50;;;;;;;;;;5044887;28;20030;-70
2023/09/16 05:49:56;;;;;;;2.10;1.50;;;;;;;;;;5044519;28;20569;-70
2023/09/16 05:52:22;;;;;;;2.75;1.70;;;;;;;;;;5045308;28;20103;-70
2023/09/16 05:54:48;;;;;;;2.50;1.42;;;;;;;;;;5045161;28;20048;-70
2023/09/16 05:57:14;;;;;;;1.55;1.38;;;;;;;;;;5045015;28;20053;-71
2023/09/16 05:59:40;;;;;;;2.80;1.35;;;;;;;;;;5044217;28;20025;-69
2023/09/16 06:02:06;;;;;;;2.05;1.50;;;;;;;;;;5043521;28;20029;-69
2023/09/16 06:04:32;;;;;;;2.35;1.50;;;;;;;;;;5048344;28;20057;-69
2023/09/16 06:06:58;;;;;;;1.75;1.50;;;;;;;;;;5041076;28;20029;-69
2023/09/16 06:09:24;;;;;;;1.88;1.65;;;;;;;;;;5042355;28;20509;-68
2023/09/16 06:11:50;;;;;;;2.17;1.50;;;;;;;;;;5041943;28;20465;-69
2023/09/16 06:14:16;;;;;;;2.00;1.60;;;;;;;;;;5040518;28;20079;-69
2023/09/16 06:16:42;;;;;;;1.75;1.50;;;;;;;;;;5041736;28;20040;-69
2023/09/16 06:19:08;;;;;;;1.80;1.50;;;;;;;;;;5042299;28;20033;-69
2023/09/16 06:21:34;;;;;;;2.75;1.48;;;;;;;;;;5042867;28;20029;-69
2023/09/16 06:24:00;;;;;;;2.00;1.40;;;;;;;;;;5043026;28;20021;-69
2023/09/16 06:26:26;;;;;;;2.10;1.60;;;;;;;;;;5043441;28;20030;-69
2023/09/16 06:28:52;;;;;;;1.35;1.20;;;;;;;;;;5043946;28;20030;-70
2023/09/16 06:31:18;;;;;;;1.98;1.35;;;;;;;;;;5044503;28;20028;-70
2023/09/16 06:33:44;;;;;;;1.65;1.40;;;;;;;;;;5044633;28;20025;-70
2023/09/16 06:36:10;;;;;;;1.65;1.40;;;;;;;;;;5043935;28;20025;-69
2023/09/16 06:38:36;;;;;;;2.30;1.45;;;;;;;;;;5044116;28;20026;-70
2023/09/16 06:41:02;;;;;;;1.75;1.38;;;;;;;;;;5043619;28;20077;-71
2023/09/16 06:43:28;;;;;;;1.40;1.27;;;;;;;;;;5042286;28;20091;-70
2023/09/16 06:45:55;;;;;;;2.45;1.40;;;;;;;;;;5044187;28;20494;-72
2023/09/16 06:48:21;;;;;;;2.38;1.52;;;;;;;;;;5045069;28;20056;-70
2023/09/16 06:50:47;;;;;;;1.90;1.20;;;;;;;;;;5041351;28;20034;-70
2023/09/16 06:53:13;;;;;;;1.70;1.20;;;;;;;;;;5042077;28;20033;-67
2023/09/16 06:55:39;;;;;;;2.22;1.70;;;;;;;;;;5037142;28;20025;-68
2023/09/16 06:58:07;;;;;;;3.83;1.70;;;;;;;;;;5036394;28;20072;-67
2023/09/16 07:00:33;;;;;;;3.63;1.80;;;;;;;;;;5035463;28;20028;-67
2023/09/16 07:02:59;;;;;;;1.98;1.63;;;;;;;;;;5036699;28;20026;-69
2023/09/16 07:05:25;;;;;;;2.10;1.90;;;;;;;;;;5042703;28;20029;-67
2023/09/16 07:07:54;;;;;;;2.75;1.80;;;;;;;;;;5036313;28;20022;-67
2023/09/16 07:10:21;;;;;;;2.72;1.80;;;;;;;;;;5036482;28;20030;-67
2023/09/16 07:12:47;;;;;;;2.35;1.50;;;;;;;;;;5036575;28;20033;-69
2023/09/16 07:15:13;;;;;;;1.95;1.50;;;;;;;;;;5036206;28;20032;-67
2023/09/16 07:17:39;;;;;;;2.97;1.60;;;;;;;;;;5036344;28;20041;-68
2023/09/16 07:20:05;;;;;;;2.55;1.52;;;;;;;;;;5035568;28;20025;-67
2023/09/16 07:22:31;;;;;;;2.03;1.58;;;;;;;;;;5036124;28;20022;-67
2023/09/16 07:24:57;;;;;;;2.03;1.40;;;;;;;;;;5036795;28;20029;-67
2023/09/16 07:27:23;;;;;;;1.83;1.42;;;;;;;;;;5038980;28;20397;-67
2023/09/16 07:29:49;;;;;;;2.08;1.50;;;;;;;;;;5039018;28;20017;-67
2023/09/16 07:32:15;;;;;;;3.00;1.60;;;;;;;;;;5039448;28;20029;-65
2023/09/16 07:34:41;;;;;;;2.00;1.63;;;;;;;;;;5039403;28;20048;-66
2023/09/16 07:37:07;;;;;;;2.20;1.80;;;;;;;;;;5038608;28;20037;-65
2023/09/16 07:39:33;;;;;;;2.30;1.70;;;;;;;;;;5038054;28;20022;-69
2023/09/16 07:41:59;;;;;;;1.70;1.30;;;;;;;;;;5040456;28;20022;-68
2023/09/16 07:44:26;;;;;;;2.15;1.70;;;;;;;;;;5038640;28;20667;-63
2023/09/16 07:46:52;;;;;;;1.70;1.50;;;;;;;;;;5037738;28;20026;-64
2023/09/16 07:49:18;;;;;;;2.58;1.58;;;;;;;;;;5038997;28;20033;-65
2023/09/16 07:51:46;;;;;;;1.70;1.50;;;;;;;;;;5026252;28;20037;-65
2023/09/16 07:54:14;;;;;;;1.92;1.65;;;;;;;;;;5039719;28;20105;-66
2023/09/16 07:56:40;;;;;;;2.17;1.65;;;;;;;;;;5038863;28;20041;-66
2023/09/16 07:59:06;;;;;;;2.47;1.65;;;;;;;;;;5038969;28;20075;-65
2023/09/16 08:01:32;;;;;;;2.38;1.88;;;;;;;;;;5039170;28;20040;-66
2023/09/16 08:03:58;;;;;;;2.35;1.88;;;;;;;;;;5044961;28;20021;-66
2023/09/16 08:06:26;;;;;;;3.97;1.90;;;;;;;;;;5036664;28;20025;-67
2023/09/16 08:08:52;;;;;;;3.58;2.00;;;;;;;;;;5035036;28;20082;-66
2023/09/16 08:11:19;;;;;;;2.17;1.88;;;;;;;;;;5038510;28;20849;-66
2023/09/16 08:13:46;;;;;;;2.90;2.00;;;;;;;;;;5038453;28;20059;-66
2023/09/16 08:16:12;;;;;;;2.30;1.73;;;;;;;;;;5035848;28;20028;-67
2023/09/16 08:18:38;;;;;;;3.78;1.70;;;;;;;;;;5036861;28;20087;-66
2023/09/16 08:21:04;;;;;;;2.78;2.00;;;;;;;;;;5036974;28;20025;-67
2023/09/16 08:23:30;;;;;;;3.17;1.80;;;;;;;;;;5038571;28;20022;-68
2023/09/16 08:25:56;;;;;;;2.00;1.80;;;;;;;;;;5039437;28;20026;-66
2023/09/16 08:28:22;;;;;;;3.25;2.35;;;;;;;;;;5039097;28;20026;-67
2023/09/16 08:30:48;;;;;;;3.75;2.72;;;;;;;;;;5039192;28;20032;-67
2023/09/16 08:33:14;;;;;;;3.13;2.35;;;;;;;;;;5036476;28;20446;-67
2023/09/16 08:35:40;;;;;;;2.20;2.00;;;;;;;;;;5037959;28;20025;-67
2023/09/16 08:38:07;;;;;;;2.70;2.38;;;;;;;;;;5037346;28;20159;-67
2023/09/16 08:40:33;;;;;;;3.63;2.30;;;;;;;;;;5037975;28;20549;-67
2023/09/16 08:42:59;;;;;;;5.57;2.60;;;;;;;;;;5037890;28;20116;-67
2023/09/16 08:45:27;;;;;;;3.45;2.60;;;;;;;;;;5038719;28;20053;-67
2023/09/16 08:47:55;;;;;;;3.25;2.33;;;;;;;;;;5038504;28;20474;-66
2023/09/16 08:50:22;;;;;;;4.90;2.42;;;;;;;;;;5039189;28;20037;-66
2023/09/16 08:52:53;;;;;;;2.70;2.40;;;;;;;;;;5038181;28;20547;-67
2023/09/16 08:55:19;;;;;;;3.55;2.10;;;;;;;;;;5038482;28;20040;-67
2023/09/16 08:57:48;;;;;;;2.35;2.05;;;;;;;;;;5037988;28;20098;-68
2023/09/16 09:00:14;;;;;;;3.33;2.08;;;;;;;;;;5038299;28;20038;-67
2023/09/16 09:02:41;;;;;;;3.13;2.65;;;;;;;;;;5038286;28;20025;-67
2023/09/16 09:05:08;;;;;;;3.28;2.10;;;;;;;;;;5043594;28;20026;-67
2023/09/16 09:07:40;;;;;;;2.85;2.40;;;;;;;;;;5038086;28;20029;-67
2023/09/16 09:10:06;;;;;;;2.78;2.47;;;;;;;;;;5038230;28;20038;-67
2023/09/16 09:12:36;;;;;;;3.10;2.13;;;;;;;;;;5038147;28;20041;-68
2023/09/16 09:15:05;;;;;;;3.40;2.63;;;;;;;;;;5038256;28;20065;-67
2023/09/16 09:17:36;;;;;;;2.88;2.30;;;;;;;;;;5037934;28;20402;-67
2023/09/16 09:20:03;;;;;;;2.85;2.50;;;;;;;;;;5037582;28;20021;-67
2023/09/16 09:22:29;;;;;;;2.35;2.03;;;;;;;;;;5037669;28;20057;-68
2023/09/16 09:24:55;;;;;;;3.85;2.30;;;;;;;;;;5036561;28;20032;-67
2023/09/16 09:27:21;;;;;;;3.38;2.33;;;;;;;;;;5037442;28;20029;-65
2023/09/16 09:29:47;;;;;;;5.55;2.67;;;;;;;;;;5036996;28;20378;-67
2023/09/16 09:32:13;;;;;;;4.32;2.58;;;;;;;;;;5037097;28;20037;-67
2023/09/16 09:34:39;;;;;;;3.10;2.75;;;;;;;;;;5036317;28;20052;-67
2023/09/16 09:37:15;;;;;;;3.53;2.30;;;;;;;;;;5036129;28;20041;-67
2023/09/16 09:39:41;;;;;;;4.20;2.28;;;;;;;;;;5025700;28;20026;-67
2023/09/16 09:42:07;;;;;;;4.68;2.20;;;;;;;;;;5037510;28;20064;-66
2023/09/16 09:44:34;;;;;;;2.75;2.22;;;;;;;;;;5036239;28;20059;-67
2023/09/16 09:47:00;;;;;;;2.88;2.15;;;;;;;;;;5037498;28;20021;-67
2023/09/16 09:49:26;;;;;;;3.08;2.17;;;;;;;;;;5038881;28;20413;-67
2023/09/16 09:51:52;;;;;;;2.78;2.28;;;;;;;;;;5037144;28;20033;-67
2023/09/16 09:54:19;;;;;;;4.40;2.80;;;;;;;;;;5036935;28;20025;-67
2023/09/16 09:56:46;;;;;;;3.05;2.65;;;;;;;;;;5035743;28;20052;-67
2023/09/16 09:59:12;;;;;;;4.18;2.58;;;;;;;;;;5037020;28;20025;-67
2023/09/16 10:01:39;;;;;;;5.50;3.08;;;;;;;;;;5037708;28;20049;-67
2023/09/16 10:04:05;;;;;;;3.70;3.00;;;;;;;;;;5042788;28;20104;-67
2023/09/16 10:06:32;;;;;;;4.72;3.15;;;;;;;;;;5037132;28;20437;-68
2023/09/16 10:08:58;;;;;;;3.60;2.60;;;;;;;;;;5037348;28;20025;-67
2023/09/16 10:11:28;;;;;;;3.15;2.70;;;;;;;;;;5037122;28;20394;-67
2023/09/16 10:13:54;;;;;;;5.45;3.10;;;;;;;;;;5037142;28;20041;-68
2023/09/16 10:16:20;;;;;;;3.38;2.83;;;;;;;;;;5037068;28;20477;-67
2023/09/16 10:18:46;;;;;;;2.70;2.30;;;;;;;;;;5037094;28;20036;-67
2023/09/16 10:21:14;;;;;;;3.67;2.25;;;;;;;;;;5036627;28;20029;-67
2023/09/16 10:23:40;;;;;;;3.38;2.70;;;;;;;;;;5035606;28;20402;-67
2023/09/16 10:26:06;;;;;;;3.47;2.60;;;;;;;;;;5036995;28;20486;-67
2023/09/16 10:28:36;;;;;;;3.55;2.28;;;;;;;;;;5035622;28;20022;-67
2023/09/16 10:31:02;;;;;;;3.08;2.40;;;;;;;;;;5036921;28;20053;-67
2023/09/16 10:33:28;;;;;;;2.83;2.50;;;;;;;;;;5035392;28;20083;-67
2023/09/16 10:35:55;;;;;;;3.33;2.20;;;;;;;;;;5036873;28;20479;-67
2023/09/16 10:38:21;;;;;;;3.38;2.17;;;;;;;;;;5033190;28;20075;-67
2023/09/16 10:40:47;;;;;;;2.92;2.45;;;;;;;;;;5028535;28;20061;-67
2023/09/16 10:43:13;;;;;;;4.20;3.03;;;;;;;;;;5036706;28;20026;-67
2023/09/16 10:45:42;;;;;;;4.22;2.95;;;;;;;;;;5036807;28;20025;-67
2023/09/16 10:48:08;;;;;;;3.50;2.38;;;;;;;;;;5036649;28;20025;-67
2023/09/16 10:50:37;;;;;;;3.47;2.33;;;;;;;;;;5039145;28;20021;-67
2023/09/16 10:53:06;;;;;;;3.63;2.20;;;;;;;;;;5034993;28;20032;-67
2023/09/16 10:55:38;;;;;;;2.63;2.10;;;;;;;;;;5036384;28;20057;-67
2023/09/16 10:58:16;;;;;;;2.90;2.42;;;;;;;;;;5036599;28;20494;-67
2023/09/16 11:00:47;;;;;;;2.60;2.08;;;;;;;;;;5037323;28;20068;-67
2023/09/16 11:03:14;;;;;;;2.30;2.00;;;;;;;;;;5041247;28;20085;-67
2023/09/16 11:05:40;;;;;;;3.65;2.22;;;;;;;;;;5045134;28;20075;-67
2023/09/16 11:08:07;;;;;;;2.58;1.95;;;;;;;;;;5040524;28;20641;-67
2023/09/16 11:10:33;;;;;;;2.90;2.10;;;;;;;;;;5039087;28;20022;-67
2023/09/16 11:13:00;;;;;;;2.90;2.20;;;;;;;;;;5040637;28;20052;-67
2023/09/16 11:15:33;;;;;;;2.53;1.90;;;;;;;;;;5038960;28;20021;-67
2023/09/16 11:18:02;;;;;;;1.85;1.65;;;;;;;;;;5040144;28;20029;-66
2023/09/16 11:20:31;;;;;;;2.22;1.80;;;;;;;;;;5040046;28;20032;-67
2023/09/16 11:22:57;;;;;;;2.47;1.95;;;;;;;;;;5038925;28;20064;-71
2023/09/16 11:25:23;;;;;;;2.03;1.73;;;;;;;;;;5039984;28;20026;-67
2023/09/16 11:27:50;;;;;;;2.40;2.10;;;;;;;;;;5038347;28;20072;-68
2023/09/16 11:30:17;;;;;;;2.83;2.00;;;;;;;;;;5039437;28;20033;-68
2023/09/16 11:32:58;;;;;;;2.90;2.40;;;;;;;;;;5039486;28;20085;-68
2023/09/16 11:35:27;;;;;;;2.78;2.28;;;;;;;;;;5039150;28;20025;-67
2023/09/16 11:37:53;;;;;;;4.20;3.08;;;;;;;;;;5039845;28;20033;-68
2023/09/16 11:40:25;;;;;;;4.80;3.00;;;;;;;;;;5034972;28;20025;-68
2023/09/16 11:42:51;;;;;;;4.53;2.90;;;;;;;;;;5039967;28;20037;-68
2023/09/16 11:45:18;;;;;;;3.78;3.00;;;;;;;;;;5039858;28;20026;-68
2023/09/16 11:47:47;;;;;;;4.10;3.05;;;;;;;;;;5038441;28;20025;-68
2023/09/16 11:50:26;;;;;;;4.53;3.38;;;;;;;;;;5040209;28;20478;-67
2023/09/16 11:52:52;;;;;;;4.55;3.53;;;;;;;;;;5044555;28;20033;-68
2023/09/16 11:55:19;;;;;;;3.60;2.83;;;;;;;;;;5039491;28;20562;-68
2023/09/16 11:57:46;;;;;;;4.60;3.05;;;;;;;;;;5039137;28;20088;-68
2023/09/16 12:00:12;;;;;;;3.00;2.70;;;;;;;;;;5038928;28;20033;-68
2023/09/16 12:02:38;;;;;;;3.45;2.97;;;;;;;;;;5039027;28;20021;-67
2023/09/16 12:05:05;;;;;;;3.20;2.53;;;;;;;;;;5045271;28;20018;-68
2023/09/16 12:07:32;;;;;;;4.53;2.15;;;;;;;;;;5039178;28;20140;-68
2023/09/16 12:10:01;;;;;;;3.60;2.80;;;;;;;;;;5043423;28;20482;-68
2023/09/16 12:12:30;;;;;;;3.63;2.67;;;;;;;;;;5045532;28;20097;-68
2023/09/16 12:14:56;;;;;;;5.55;2.50;;;;;;;;;;5046467;28;20398;-67
2023/09/16 12:17:26;;;;;;;3.72;2.42;;;;;;;;;;5040938;28;20049;-68
2023/09/16 12:19:52;;;;;;;2.90;2.60;;;;;;;;;;5041617;28;20060;-68
2023/09/16 12:22:19;;;;;;;2.95;2.65;;;;;;;;;;5042642;28;20040;-67
2023/09/16 12:24:45;;;;;;;3.67;2.30;;;;;;;;;;5050810;28;20025;-67
2023/09/16 12:27:12;;;;;;;3.40;2.17;;;;;;;;;;5040163;28;20033;-66
2023/09/16 12:29:38;;;;;;;2.53;2.05;;;;;;;;;;5039120;28;20105;-67
2023/09/16 12:32:08;;;;;;;2.30;1.73;;;;;;;;;;5035592;28;20501;-67
2023/09/16 12:34:34;;;;;;;2.58;1.92;;;;;;;;;;5040452;28;20049;-68
2023/09/16 12:37:00;;;;;;;2.65;2.17;;;;;;;;;;5042020;28;20057;-68
2023/09/16 12:39:26;;;;;;;3.17;2.40;;;;;;;;;;5040064;28;20119;-68
2023/09/16 12:41:53;;;;;;;3.03;2.03;;;;;;;;;;5038725;28;20033;-68
2023/09/16 12:44:19;;;;;;;3.35;2.10;;;;;;;;;;5042936;28;20072;-68
2023/09/16 12:46:45;;;;;;;2.85;1.80;;;;;;;;;;5041486;28;20060;-68
2023/09/16 12:49:11;;;;;;;3.58;2.30;;;;;;;;;;5042880;28;20490;-68
2023/09/16 12:51:37;;;;;;;2.40;1.88;;;;;;;;;;5041737;28;20021;-68
2023/09/16 12:54:03;;;;;;;3.55;1.90;;;;;;;;;;5040382;28;20405;-68
2023/09/16 12:56:31;;;;;;;3.15;1.60;;;;;;;;;;5039359;28;20394;-68
2023/09/16 12:59:00;;;;;;;2.85;1.45;;;;;;;;;;5037894;28;20033;-68
2023/09/16 13:01:26;;;;;;;2.05;1.73;;;;;;;;;;5038027;28;20018;-67
2023/09/16 13:03:52;;;;;;;1.63;1.48;;;;;;;;;;5040529;28;20085;-68
2023/09/16 13:06:19;;;;;;;2.22;1.48;;;;;;;;;;5040252;28;20018;-68
2023/09/16 13:08:45;;;;;;;1.70;1.60;;;;;;;;;;5042945;28;20029;-66
2023/09/16 13:11:12;;;;;;;2.33;1.88;;;;;;;;;;5037958;28;20025;-68
2023/09/16 13:13:38;;;;;;;3.60;1.92;;;;;;;;;;5048440;28;20437;-67
2023/09/16 13:16:04;;;;;;;3.17;1.90;;;;;;;;;;5045101;28;20060;-67
2023/09/16 13:18:31;;;;;;;3.00;1.75;;;;;;;;;;5039502;28;20040;-67
2023/09/16 13:20:58;;;;;;;2.35;1.92;;;;;;;;;;5042396;28;20120;-67
2023/09/16 13:23:28;;;;;;;2.10;1.75;;;;;;;;;;5033799;28;20034;-67
2023/09/16 13:25:55;;;;;;;3.38;2.60;;;;;;;;;;5043064;28;20105;-67
2023/09/16 13:28:23;;;;;;;3.08;2.17;;;;;;;;;;5039912;28;20022;-66
2023/09/16 13:30:50;;;;;;;2.90;1.67;;;;;;;;;;5041570;28;20393;-67
2023/09/16 13:33:16;;;;;;;3.42;1.80;;;;;;;;;;5037262;28;20029;-67
2023/09/16 13:35:45;;;;;;;2.28;2.00;;;;;;;;;;5037360;28;20021;-67
2023/09/16 13:38:11;;;;;;;2.13;1.75;;;;;;;;;;5034994;28;20026;-67
2023/09/16 13:40:38;;;;;;;2.25;1.90;;;;;;;;;;5026897;28;20029;-67
2023/09/16 13:43:05;;;;;;;3.97;2.08;;;;;;;;;;5037388;28;20026;-66
2023/09/16 13:45:31;;;;;;;2.92;2.00;;;;;;;;;;5037473;28;20022;-66
2023/09/16 13:48:11;;;;;;;2.75;2.20;;;;;;;;;;5037154;28;20502;-67
2023/09/16 13:50:41;;;;;;;2.85;2.00;;;;;;;;;;5039213;28;20431;-67
2023/09/16 13:53:07;;;;;;;2.58;2.35;;;;;;;;;;5037180;28;20033;-67
2023/09/16 13:55:33;;;;;;;2.63;2.20;;;;;;;;;;5038414;28;20538;-67
2023/09/16 13:57:59;;;;;;;2.83;2.10;;;;;;;;;;5037141;28;20061;-67
2023/09/16 14:00:26;;;;;;;2.70;2.10;;;;;;;;;;5036082;28;20030;-67
2023/09/16 14:02:53;;;;;;;2.42;2.22;;;;;;;;;;5037469;28;20068;-67
2023/09/16 14:05:19;;;;;;;2.50;2.30;;;;;;;;;;5035830;28;20453;-67
2023/09/16 14:07:45;;;;;;;4.05;2.63;;;;;;;;;;5037046;28;20032;-67
2023/09/16 14:10:11;;;;;;;4.13;2.50;;;;;;;;;;5037400;28;20030;-67
2023/09/16 14:12:36;;;;;;;2.83;2.05;;;;;;;;;;5037387;28;20026;-67
2023/09/16 14:15:03;;;;;;;3.53;2.63;;;;;;;;;;5036048;28;20036;-66
2023/09/16 14:17:29;;;;;;;2.70;2.08;;;;;;;;;;5036715;28;20517;-66
2023/09/16 14:19:55;;;;;;;3.42;2.88;;;;;;;;;;5035761;28;20029;-66
2023/09/16 14:22:21;;;;;;;2.65;2.08;;;;;;;;;;5036522;28;20056;-66
2023/09/16 14:24:47;;;;;;;4.93;3.10;;;;;;;;;;5036763;28;20027;-66
2023/09/16 14:27:13;;;;;;;3.47;2.15;;;;;;;;;;5036238;28;20057;-67
2023/09/16 14:29:39;;;;;;;3.78;2.33;;;;;;;;;;5037061;28;20044;-67
2023/09/16 14:32:05;;;;;;;3.22;2.40;;;;;;;;;;5036600;28;20039;-67